createdAt,value
2022-09-24T00:03:10.206Z,12.89
2022-09-24T00:09:15.571Z,12.70
2022-09-24T00:15:17.563Z,12.60
2022-09-24T00:21:22.224Z,12.52
2022-09-24T00:27:24.116Z,12.43
2022-09-24T00:33:28.436Z,12.38
2022-09-24T00:39:30.310Z,12.15
2022-09-24T00:45:32.265Z,12.28
2022-09-24T00:51:34.311Z,12.02
2022-09-24T00:57:39.174Z,11.96
2022-09-24T01:03:42.571Z,11.98
2022-09-24T01:09:44.493Z,11.74
2022-09-24T01:15:57.285Z,11.75
2022-09-24T01:22:13.016Z,11.80
2022-09-24T01:28:44.888Z,11.89
2022-09-24T01:34:55.693Z,11.81
2022-09-24T01:41:00.124Z,11.96
2022-09-24T01:47:04.357Z,12.17
2022-09-24T01:53:22.988Z,11.90
2022-09-24T01:59:40.525Z,11.80
2022-09-24T02:05:58.648Z,11.65
2022-09-24T02:18:23.415Z,11.84
2022-09-24T02:24:44.569Z,11.89
2022-09-24T02:31:05.705Z,11.97
2022-09-24T02:37:11.702Z,11.93
2022-09-24T02:43:13.584Z,11.90
2022-09-24T02:49:15.481Z,11.82
2022-09-24T02:55:17.385Z,11.85
2022-09-24T03:01:19.759Z,11.64
2022-09-24T03:07:22.480Z,11.66
2022-09-24T03:13:24.424Z,11.70
2022-09-24T03:19:26.304Z,11.72
2022-09-24T03:25:28.336Z,11.79
2022-09-24T03:31:30.335Z,11.83
2022-09-24T03:37:33.368Z,11.90
2022-09-24T03:43:36.002Z,11.81
2022-09-24T03:49:38.046Z,11.82
2022-09-24T03:55:48.456Z,11.79
2022-09-24T04:01:50.504Z,11.87
2022-09-24T04:07:52.429Z,11.62
2022-09-24T04:13:54.518Z,11.57
2022-09-24T04:19:56.858Z,11.28
2022-09-24T04:26:02.338Z,11.49
2022-09-24T04:32:04.422Z,11.29
2022-09-24T04:38:06.396Z,11.36
2022-09-24T04:44:08.528Z,11.52
2022-09-24T04:50:11.432Z,11.36
2022-09-24T04:56:13.630Z,11.41
2022-09-24T05:02:16.988Z,11.42
2022-09-24T05:08:19.019Z,11.38
2022-09-24T05:14:20.922Z,11.46
2022-09-24T05:20:22.959Z,11.25
2022-09-24T05:26:43.574Z,11.22
2022-09-24T05:32:46.299Z,11.13
2022-09-24T05:38:48.234Z,11.28
2022-09-24T05:44:52.410Z,11.11
2022-09-24T05:50:57.068Z,11.12
2022-09-24T05:56:58.956Z,11.14
2022-09-24T06:03:17.087Z,11.06
2022-09-24T06:22:05.273Z,11.33
2022-09-24T06:28:19.121Z,11.53
2022-09-24T06:34:21.046Z,11.47
2022-09-24T06:40:26.035Z,11.67
2022-09-24T06:46:28.366Z,11.96
2022-09-24T06:52:30.483Z,12.27
2022-09-24T06:58:33.940Z,12.64
2022-09-24T07:04:35.998Z,13.04
2022-09-24T07:10:42.170Z,13.93
2022-09-24T07:16:50.186Z,14.55
2022-09-24T07:22:52.082Z,14.85
2022-09-24T07:28:53.969Z,15.11
2022-09-24T07:34:55.875Z,14.92
2022-09-24T07:40:58.988Z,15.06
2022-09-24T07:47:01.198Z,15.48
2022-09-24T07:53:03.320Z,15.60
2022-09-24T07:59:11.189Z,16.13
2022-09-24T08:05:15.305Z,16.51
2022-09-24T08:11:17.472Z,17.01
2022-09-24T08:17:20.046Z,17.82
2022-09-24T08:23:22.054Z,18.02
2022-09-24T08:29:23.968Z,18.61
2022-09-24T08:35:26.215Z,20.60
2022-09-24T08:41:52.065Z,22.32
2022-09-24T08:48:01.125Z,20.84
2022-09-24T08:54:09.443Z,19.69
2022-09-24T09:00:15.648Z,18.88
2022-09-24T09:07:12.886Z,18.64
2022-09-24T09:13:46.420Z,18.79
2022-09-24T09:19:57.065Z,19.12
2022-09-24T09:26:00.060Z,20.03
2022-09-24T09:46:26.093Z,19.72
2022-09-24T09:52:35.316Z,19.97
2022-09-24T09:58:44.606Z,20.86
2022-09-24T10:04:51.127Z,21.78
2022-09-24T10:10:59.879Z,22.16
2022-09-24T10:17:09.826Z,23.04
2022-09-24T10:23:50.763Z,24.24
2022-09-24T10:30:15.093Z,25.44
2022-09-24T10:43:10.989Z,27.69
2022-09-24T10:50:48.383Z,27.56
2022-09-24T10:57:25.478Z,27.90
2022-09-24T11:03:58.681Z,28.23
2022-09-24T11:10:30.935Z,27.16
2022-09-24T11:17:35.767Z,25.90
2022-09-24T11:23:52.258Z,25.44
2022-09-24T11:30:09.772Z,24.90
2022-09-24T11:36:56.914Z,24.33
2022-09-24T11:43:16.641Z,24.28
2022-09-24T11:50:17.118Z,24.01
2022-09-24T11:56:48.654Z,23.18
2022-09-24T12:03:26.401Z,23.30
2022-09-24T12:10:02.146Z,22.83
2022-09-24T12:16:13.455Z,21.97
2022-09-24T12:22:19.217Z,20.99
2022-09-24T12:28:41.085Z,20.74
2022-09-24T12:34:50.940Z,21.03
2022-09-24T12:41:31.991Z,21.43
2022-09-24T12:54:27.494Z,20.17
2022-09-24T13:00:32.460Z,19.52
2022-09-24T13:06:38.049Z,19.67
2022-09-24T13:13:22.156Z,19.38
2022-09-24T13:19:36.506Z,19.84
2022-09-24T13:26:09.127Z,19.51
2022-09-24T13:32:24.459Z,19.48
2022-09-24T13:38:33.980Z,19.31
2022-09-24T13:50:53.374Z,19.78
2022-09-24T13:57:16.255Z,19.55
2022-09-24T14:03:32.677Z,19.02
2022-09-24T14:09:36.853Z,19.20
2022-09-24T14:16:25.932Z,18.79
2022-09-24T14:22:36.699Z,18.86
2022-09-24T14:28:44.545Z,18.88
2022-09-24T14:34:46.497Z,18.78
2022-09-24T14:41:34.184Z,18.51
2022-09-24T14:47:47.688Z,18.36
2022-09-24T14:54:03.740Z,18.40
2022-09-24T15:00:40.370Z,18.23
2022-09-24T15:13:23.748Z,17.44
2022-09-24T15:26:33.674Z,17.55
2022-09-24T15:32:36.025Z,17.41
2022-09-24T15:38:40.972Z,17.25
2022-09-24T15:44:50.814Z,17.11
2022-09-24T15:51:41.822Z,16.95
2022-09-24T15:57:44.563Z,16.74
2022-09-24T16:03:46.639Z,16.62
2022-09-24T16:09:48.561Z,16.50
2022-09-24T16:15:50.694Z,16.49
2022-09-24T16:21:53.158Z,16.51
2022-09-24T16:27:57.008Z,16.21
2022-09-24T16:34:02.962Z,15.93
2022-09-24T16:40:05.501Z,15.87
2022-09-24T16:46:10.444Z,15.86
2022-09-24T16:52:12.822Z,15.80
2022-09-24T16:58:14.731Z,15.70
2022-09-24T17:04:16.610Z,15.56
2022-09-24T17:10:18.558Z,15.34
2022-09-24T17:16:27.245Z,15.06
2022-09-24T17:22:32.794Z,15.14
2022-09-24T17:28:37.116Z,15.06
2022-09-24T17:34:45.683Z,14.74
2022-09-24T17:41:03.952Z,14.79
2022-09-24T17:47:06.841Z,14.78
2022-09-24T17:53:13.600Z,14.58
2022-09-24T17:59:17.738Z,14.36
2022-09-24T18:05:19.796Z,14.36
2022-09-24T18:24:17.153Z,14.21
2022-09-24T18:30:22.399Z,14.21
2022-09-24T18:36:28.505Z,14.24
2022-09-24T18:42:32.751Z,14.17
2022-09-24T18:48:42.252Z,14.16
2022-09-24T18:55:00.843Z,14.11
2022-09-24T19:01:06.738Z,14.16
2022-09-24T19:07:09.627Z,14.19
2022-09-24T19:13:43.049Z,14.16
2022-09-24T19:19:52.238Z,13.95
2022-09-24T19:26:03.682Z,14.00
2022-09-24T19:32:05.606Z,14.07
2022-09-24T19:38:10.510Z,13.95
2022-09-24T19:44:13.743Z,13.96
2022-09-24T19:50:17.772Z,14.00
2022-09-24T19:56:35.493Z,13.92
2022-09-24T20:08:59.381Z,13.70
2022-09-24T20:15:04.957Z,13.86
2022-09-24T20:21:43.467Z,13.65
2022-09-24T20:27:48.972Z,13.73
2022-09-24T20:33:54.969Z,13.63
2022-09-24T20:39:56.875Z,13.60
2022-09-24T20:46:01.242Z,13.71
2022-09-24T20:52:05.323Z,13.58
2022-09-24T20:58:07.489Z,13.51
2022-09-24T21:04:09.723Z,13.44
2022-09-24T21:10:12.742Z,13.27
2022-09-24T21:16:17.178Z,13.09
2022-09-24T21:22:20.528Z,12.89
2022-09-24T21:28:22.465Z,12.81
2022-09-24T21:34:24.399Z,12.77
2022-09-24T21:40:26.333Z,12.69
2022-09-24T21:46:31.348Z,12.78
2022-09-24T21:52:33.399Z,12.80
2022-09-24T21:58:35.357Z,12.83
2022-09-24T22:04:37.315Z,12.92
2022-09-24T22:10:40.923Z,13.00
2022-09-24T22:16:42.920Z,12.99
2022-09-24T22:22:44.979Z,13.02
2022-09-24T22:28:48.070Z,12.99
2022-09-24T22:35:08.507Z,12.98
2022-09-24T22:41:19.385Z,12.92
2022-09-24T22:47:21.454Z,12.86
2022-09-24T22:53:25.038Z,12.79
2022-09-24T22:59:34.154Z,12.66
2022-09-24T23:05:36.048Z,12.54
2022-09-24T23:11:43.865Z,12.40
2022-09-24T23:17:46.308Z,12.12
2022-09-24T23:23:52.838Z,12.08
2022-09-24T23:29:54.750Z,11.95
2022-09-24T23:35:57.419Z,11.86
2022-09-24T23:41:59.589Z,11.92
2022-09-24T23:48:01.856Z,11.72
2022-09-24T23:54:04.345Z,11.49
